Lake George, NY

1:58 PM EST on December 10, 2016 (GMT -0500)
Pickle Hill | | Change Station

Elev 384 ft 43.41 °N, 73.63 °W | Updated 9 seconds ago

Mostly Cloudy
Mostly Cloudy
25.7 °F
Feels Like 21 °F
N
4.0
Wind Variable Wind from NNW
Gusts 4.9 mph

Today
High -- | Low -- °F
--% Chance of Precip.
Yesterday
High -- | Low -- °F
Precip. -- in
Pressure 30.33 in
Visibility 10.0 miles
Clouds Scattered Clouds 5500 ft
Windchill 21 °F
Dew Point -1 °F
Humidity 31%
Rainfall 0.00 in
Snow Depth Not available.
7:17 AM 4:18 PM
Waxing Gibbous, 85% visible
METAR KGFL 101853Z AUTO 05004KT 10SM SCT055 M02/M15 A3030 RMK AO2 SLP271 T10221150
Pressure 30.33 in
Visibility 10.0 miles
Clouds Scattered Clouds 5500 ft
Windchill 21 °F
Dew Point -1 °F
Humidity 31%
Rainfall 0.00 in
Snow Depth Not available.
7:17 AM 4:18 PM
Waxing Gibbous, 85% visible
METAR KGFL 101853Z AUTO 05004KT 10SM SCT055 M02/M15 A3030 RMK AO2 SLP271 T10221150

10-Day Weather Forecast

Almanac

Astronomy

Dec. 10, 2016 Rise Set
Actual Time
Civil Twilight
Nautical Twilight
Astronomical Twilight
Moon
Length of Visible Light
Length of Day
Tomorrow will be .
, % of the Moon is Illuminated

Today's Extremes

State Highs State Lows

Community

WunderPhotos

Upload Photos

1,956,620 photos uploaded!

WunderBlog® & News

Nearby

Air Quality

  Air Quality AQ Index Pollutant
Not available.

Snow Depth

Station Depth Elevation

Earthquake Activity

City Distance Mag. Time & Date
Minimum magnitude displayed is 2.5.

Coastal Water Temperatures

Place Temperature

Stations

Nearby Weather Stations

Station Location Temp. Windchill Dew Point Humidity Wind Precip. Elev Updated Type
                   

Watches & Warnings

There are currently no watches in effect.